createdAt,value
2022-08-17T00:02:53.934Z,70
2022-08-17T00:17:53.765Z,72
2022-08-17T00:33:12.631Z,68
2022-08-17T00:47:53.727Z,67
2022-08-17T01:02:53.895Z,68
2022-08-17T01:17:53.677Z,69
2022-08-17T01:32:53.664Z,72
2022-08-17T01:47:53.604Z,72
2022-08-17T02:02:53.610Z,73
2022-08-17T02:17:54.855Z,74
2022-08-17T02:32:53.553Z,75
2022-08-17T02:47:53.501Z,77
2022-08-17T03:02:53.501Z,77
2022-08-17T03:17:53.478Z,75
2022-08-17T03:32:53.451Z,76
2022-08-17T03:47:53.391Z,78
2022-08-17T04:02:53.395Z,79
2022-08-17T04:17:53.334Z,78
2022-08-17T04:33:04.386Z,78
2022-08-17T04:47:53.283Z,78
2022-08-17T05:02:53.533Z,79
2022-08-17T05:17:53.226Z,79
2022-08-17T05:32:53.448Z,81
2022-08-17T05:47:53.179Z,80
2022-08-17T06:02:53.594Z,79
2022-08-17T06:17:53.162Z,80
2022-08-17T06:32:53.128Z,81
2022-08-17T06:47:53.065Z,78
2022-08-17T07:02:53.562Z,77
2022-08-17T07:17:53.019Z,74
2022-08-17T07:32:53.024Z,67
2022-08-17T07:47:52.981Z,61
2022-08-17T08:02:52.972Z,60
2022-08-17T08:17:53.300Z,57
2022-08-17T08:32:52.959Z,57
2022-08-17T08:47:53.315Z,56
2022-08-17T09:02:52.862Z,53
2022-08-17T09:18:03.722Z,53
2022-08-17T09:32:52.809Z,54
2022-08-17T09:47:52.907Z,55
2022-08-17T10:02:52.736Z,55
2022-08-17T10:17:52.688Z,53
2022-08-17T10:32:52.662Z,52
2022-08-17T10:47:55.552Z,52
2022-08-17T11:02:52.810Z,50
2022-08-17T11:17:52.575Z,49
2022-08-17T11:32:54.418Z,49
2022-08-17T11:48:09.521Z,47
2022-08-17T12:02:52.545Z,46
2022-08-17T12:32:52.479Z,45
2022-08-17T12:47:52.696Z,46
2022-08-17T13:02:52.418Z,48
2022-08-17T13:17:52.399Z,48
2022-08-17T13:32:52.360Z,49
2022-08-17T13:47:52.425Z,50
2022-08-17T14:02:52.319Z,51
2022-08-17T14:17:52.378Z,51
2022-08-17T14:32:52.296Z,53
2022-08-17T14:47:52.351Z,53
2022-08-17T15:02:52.200Z,50
2022-08-17T15:17:52.143Z,47
2022-08-17T15:32:55.153Z,49
2022-08-17T15:47:52.386Z,49
2022-08-17T16:03:14.979Z,51
2022-08-17T16:17:52.291Z,53
2022-08-17T16:32:52.334Z,59
2022-08-17T17:02:52.183Z,63
2022-08-17T17:17:52.145Z,68
2022-08-17T17:32:51.927Z,74
2022-08-17T17:47:52.158Z,76
2022-08-17T18:02:52.863Z,78
2022-08-17T18:17:52.029Z,76
2022-08-17T18:32:51.820Z,78
2022-08-17T18:47:51.930Z,76
2022-08-17T19:02:51.837Z,76
2022-08-17T19:17:51.894Z,74
2022-08-17T19:32:51.715Z,74
2022-08-17T19:47:55.145Z,74
2022-08-17T20:02:51.663Z,75
2022-08-17T20:17:51.812Z,76
2022-08-17T20:32:51.613Z,80
2022-08-17T20:48:15.541Z,83
2022-08-17T21:02:51.557Z,86
2022-08-17T21:17:51.665Z,88
2022-08-17T21:32:51.541Z,90
2022-08-17T21:47:51.707Z,91
2022-08-17T22:02:51.464Z,91
2022-08-17T22:17:51.572Z,92
2022-08-17T22:32:51.426Z,92
2022-08-17T22:47:51.690Z,93
2022-08-17T23:02:55.293Z,93
2022-08-17T23:17:51.644Z,94
2022-08-17T23:32:53.808Z,94
2022-08-17T23:47:51.468Z,94
